Time;durP1;ratioP1;P1;durP2;ratioP2;P2;SDS_P1;SDS_P2;PMS_P1;PMS_P2;Temp;Humidity;BMP_temperature;BMP_pressure;BME280_temperature;BME280_humidity;BME280_pressure;Samples;Min_cycle;Max_cycle;Signal;HPM_P1;HPM_P2
2023/07/14 00:01:53;;;;;;;18.23;10.88;;;14.00;99.90;;;;;;6151170;23;20036;-84
2023/07/14 00:04:31;;;;;;;18.05;11.15;;;14.00;99.90;;;;;;6150343;23;20043;-84
2023/07/14 00:06:57;;;;;;;18.17;11.32;;;14.00;99.90;;;;;;6151518;22;20089;-84
2023/07/14 00:09:25;;;;;;;18.08;10.27;;;14.00;99.90;;;;;;6253755;22;20018;-84
2023/07/14 00:11:52;;;;;;;15.68;10.52;;;14.00;99.90;;;;;;6253084;22;20028;-85
2023/07/14 00:14:18;;;;;;;18.20;11.52;;;14.00;99.90;;;;;;6151126;23;20019;-84
2023/07/14 00:16:46;;;;;;;19.13;11.48;;;13.90;99.90;;;;;;6253532;22;20393;-85
2023/07/14 00:19:14;;;;;;;17.27;10.98;;;13.90;99.90;;;;;;6253445;22;20024;-84
2023/07/14 00:21:40;;;;;;;18.65;10.77;;;13.90;99.90;;;;;;6253459;22;20069;-84
2023/07/14 00:24:12;;;;;;;16.80;11.00;;;13.90;99.90;;;;;;6253189;22;20029;-85
2023/07/14 00:26:40;;;;;;;19.88;11.00;;;13.80;99.90;;;;;;6150753;23;20024;-84
2023/07/14 00:29:30;;;;;;;16.77;10.32;;;13.80;99.90;;;;;;6151317;23;20330;-84
2023/07/14 00:31:57;;;;;;;19.45;11.25;;;13.80;99.90;;;;;;6150054;22;20542;-84
2023/07/14 00:34:23;;;;;;;19.45;11.23;;;13.80;99.90;;;;;;6151179;23;20018;-84
2023/07/14 00:36:49;;;;;;;19.42;10.80;;;13.80;99.90;;;;;;6151056;22;20036;-84
2023/07/14 00:39:15;;;;;;;17.67;11.38;;;13.80;99.90;;;;;;6150044;23;20095;-84
2023/07/14 00:41:41;;;;;;;16.48;11.48;;;13.80;99.90;;;;;;6253269;22;20449;-84
2023/07/14 00:44:12;;;;;;;17.52;11.38;;;13.70;99.90;;;;;;6151389;23;20018;-84
2023/07/14 00:46:38;;;;;;;20.92;12.70;;;13.70;99.90;;;;;;6149396;23;20021;-85
2023/07/14 00:49:10;;;;;;;21.42;12.88;;;13.70;99.90;;;;;;6254040;22;20022;-84
2023/07/14 00:51:37;;;;;;;20.75;12.48;;;13.70;99.90;;;;;;6150432;23;20456;-84
2023/07/14 00:54:02;;;;;;;19.00;12.00;;;13.70;99.90;;;;;;6253384;22;20025;-84
2023/07/14 00:56:44;;;;;;;20.10;12.25;;;13.70;99.90;;;;;;6150850;23;20021;-84
2023/07/14 00:59:15;;;;;;;20.25;12.35;;;13.70;99.90;;;;;;6149971;23;20032;-84
2023/07/14 01:02:17;;;;;;;18.92;12.02;;;13.70;99.90;;;;;;6253844;22;20043;-84
2023/07/14 01:04:56;;;;;;;18.27;11.38;;;13.70;99.90;;;;;;6253406;22;20010;-84
2023/07/14 01:07:27;;;;;;;17.75;11.40;;;13.70;99.90;;;;;;6253225;22;20014;-84
2023/07/14 01:09:56;;;;;;;21.98;12.45;;;13.60;99.90;;;;;;6252814;22;20072;-84
2023/07/14 01:12:24;;;;;;;20.92;11.88;;;13.60;99.90;;;;;;6253062;22;20014;-84
2023/07/14 01:14:53;;;;;;;20.88;11.93;;;13.60;99.90;;;;;;6252353;22;20021;-85
2023/07/14 01:17:21;;;;;;;19.90;12.55;;;13.60;99.90;;;;;;6150753;23;20035;-84
2023/07/14 01:20:03;;;;;;;18.35;11.93;;;13.50;99.90;;;;;;6150493;23;20024;-85
2023/07/14 01:22:29;;;;;;;18.80;12.27;;;13.50;99.90;;;;;;6252314;22;20445;-84
2023/07/14 01:24:58;;;;;;;19.42;12.68;;;13.50;99.90;;;;;;6252621;22;20060;-83
2023/07/14 01:27:26;;;;;;;19.38;12.45;;;13.50;99.90;;;;;;6252636;22;20097;-83
2023/07/14 01:29:53;;;;;;;20.08;12.70;;;13.50;99.90;;;;;;6252214;22;20014;-84
2023/07/14 01:32:22;;;;;;;19.38;11.95;;;13.40;99.90;;;;;;6253752;22;20028;-84
2023/07/14 01:34:48;;;;;;;19.83;12.85;;;13.40;99.90;;;;;;6252866;22;20018;-83
2023/07/14 01:37:19;;;;;;;19.95;11.98;;;13.40;99.90;;;;;;6253654;22;20382;-83
2023/07/14 01:39:45;;;;;;;20.05;12.48;;;13.40;99.90;;;;;;6150373;23;20021;-84
2023/07/14 01:42:12;;;;;;;17.92;11.00;;;13.40;99.90;;;;;;6250664;22;20049;-84
2023/07/14 01:44:38;;;;;;;19.90;11.20;;;13.30;99.90;;;;;;6150542;23;20021;-84
2023/07/14 01:47:08;;;;;;;19.58;12.85;;;13.30;99.90;;;;;;6157858;22;20014;-84
2023/07/14 01:49:50;;;;;;;20.08;12.98;;;13.30;99.90;;;;;;6252015;22;20082;-84
2023/07/14 01:52:29;;;;;;;22.90;12.27;;;13.30;99.90;;;;;;6253424;22;20018;-84
2023/07/14 01:55:14;;;;;;;20.33;11.88;;;13.30;99.90;;;;;;6150339;23;20076;-83
2023/07/14 01:57:43;;;;;;;19.88;13.00;;;13.30;99.90;;;;;;6252258;22;20341;-84
2023/07/14 02:00:12;;;;;;;18.80;12.15;;;13.30;99.90;;;;;;6252874;22;20116;-83
2023/07/14 02:02:54;;;;;;;22.10;13.77;;;13.30;99.90;;;;;;6251721;22;20017;-84
2023/07/14 02:05:26;;;;;;;19.52;12.75;;;13.20;99.90;;;;;;6252968;22;20032;-83
2023/07/14 02:07:54;;;;;;;19.38;12.27;;;13.20;99.90;;;;;;6253181;22;20052;-84
2023/07/14 02:10:32;;;;;;;20.13;12.38;;;13.20;99.90;;;;;;6149272;23;20018;-83
2023/07/14 02:12:59;;;;;;;18.05;12.07;;;13.10;99.90;;;;;;6253199;22;20014;-84
2023/07/14 02:15:33;;;;;;;20.23;12.63;;;13.10;99.90;;;;;;6253242;22;20395;-84
2023/07/14 02:18:00;;;;;;;20.98;12.65;;;13.10;99.90;;;;;;6252329;22;20018;-84
2023/07/14 02:20:36;;;;;;;21.85;15.07;;;13.10;99.90;;;;;;6251592;22;20450;-83
2023/07/14 02:23:08;;;;;;;22.17;13.50;;;13.10;99.90;;;;;;6150677;23;20067;-83
2023/07/14 02:25:42;;;;;;;21.27;13.13;;;13.10;99.90;;;;;;6251810;22;20024;-84
2023/07/14 02:28:12;;;;;;;21.95;13.73;;;13.10;99.90;;;;;;6253054;22;20100;-84
2023/07/14 02:30:39;;;;;;;22.35;13.80;;;13.10;99.90;;;;;;6251819;22;20529;-84
2023/07/14 02:33:19;;;;;;;22.38;13.90;;;13.00;99.90;;;;;;6253907;22;20393;-84
2023/07/14 02:36:01;;;;;;;23.92;14.38;;;13.00;99.90;;;;;;6149841;23;20131;-83
2023/07/14 02:38:26;;;;;;;24.13;14.90;;;13.00;99.90;;;;;;6251885;22;20015;-84
2023/07/14 02:40:55;;;;;;;22.40;14.52;;;13.00;99.90;;;;;;6252152;22;20024;-84
2023/07/14 02:43:23;;;;;;;23.27;14.70;;;13.00;99.90;;;;;;6252881;22;20440;-84
2023/07/14 02:45:55;;;;;;;22.70;14.15;;;13.00;99.90;;;;;;6149409;22;20018;-84
2023/07/14 02:48:38;;;;;;;20.02;13.07;;;13.00;99.90;;;;;;6150656;22;20064;-84
2023/07/14 02:51:04;;;;;;;22.35;14.13;;;12.90;99.90;;;;;;6252904;22;20021;-83
2023/07/14 02:53:30;;;;;;;23.50;14.00;;;12.90;99.90;;;;;;6251703;22;20017;-84
2023/07/14 02:55:58;;;;;;;22.33;13.38;;;12.90;99.90;;;;;;6150454;23;20018;-84
2023/07/14 02:58:34;;;;;;;19.88;12.77;;;12.90;99.90;;;;;;6252059;22;20108;-83
2023/07/14 03:01:00;;;;;;;19.25;12.75;;;12.90;99.90;;;;;;6149481;23;20089;-84
2023/07/14 03:03:44;;;;;;;19.65;12.55;;;12.90;99.90;;;;;;6150723;23;20025;-84
2023/07/14 03:06:12;;;;;;;19.08;12.23;;;12.80;99.90;;;;;;6252110;22;20100;-84
2023/07/14 03:08:38;;;;;;;18.45;12.43;;;12.90;99.90;;;;;;6150167;23;20022;-84
2023/07/14 03:11:07;;;;;;;21.67;13.10;;;12.80;99.90;;;;;;6252197;22;20049;-84
2023/07/14 03:13:35;;;;;;;22.58;12.70;;;12.80;99.90;;;;;;6251213;22;20017;-83
2023/07/14 03:16:09;;;;;;;20.83;11.85;;;12.80;99.90;;;;;;6252219;22;20342;-84
2023/07/14 03:18:34;;;;;;;17.65;11.95;;;12.80;99.90;;;;;;6252516;22;20109;-84
2023/07/14 03:21:02;;;;;;;19.77;12.73;;;12.80;99.90;;;;;;6252092;22;20075;-83
2023/07/14 03:23:37;;;;;;;23.27;11.98;;;12.70;99.90;;;;;;6149895;23;20322;-83
2023/07/14 03:26:06;;;;;;;20.35;12.50;;;12.80;99.90;;;;;;6252205;22;20105;-84
2023/07/14 03:28:33;;;;;;;21.45;12.82;;;12.80;99.90;;;;;;6149026;23;20017;-84
2023/07/14 03:31:01;;;;;;;19.40;12.30;;;12.80;99.90;;;;;;6150255;23;20021;-84
2023/07/14 03:33:38;;;;;;;22.55;12.63;;;12.80;99.90;;;;;;6252552;22;20396;-84
2023/07/14 03:36:06;;;;;;;19.40;12.45;;;12.90;99.90;;;;;;6150251;23;20020;-84
2023/07/14 03:39:11;;;;;;;18.80;12.23;;;12.90;99.90;;;;;;6254151;22;20021;-84
2023/07/14 03:41:53;;;;;;;21.15;12.60;;;12.80;99.90;;;;;;6156518;23;20405;-84
2023/07/14 03:44:19;;;;;;;21.65;13.23;;;13.10;99.90;;;;;;6175792;22;20421;-84
2023/07/14 03:46:45;;;;;;;20.73;12.85;;;13.10;99.90;;;;;;6260248;22;20096;-83
2023/07/14 03:51:40;;;;;;;21.48;13.98;;;13.20;99.90;;;;;;6151985;22;20029;-83
2023/07/14 03:54:06;;;;;;;21.25;13.98;;;13.30;99.90;;;;;;6254564;22;20025;-84
2023/07/14 03:56:32;;;;;;;23.98;13.50;;;13.30;99.90;;;;;;6252874;22;20438;-84
2023/07/14 03:59:13;;;;;;;26.10;13.45;;;13.40;99.90;;;;;;6151200;23;20097;-84
2023/07/14 04:01:39;;;;;;;22.98;14.00;;;13.40;99.90;;;;;;6150802;23;20013;-84
2023/07/14 04:04:06;;;;;;;21.55;13.75;;;13.50;99.90;;;;;;6253299;22;20021;-84
2023/07/14 04:06:31;;;;;;;23.20;14.30;;;13.50;99.90;;;;;;6253354;22;20049;-84
2023/07/14 04:09:09;;;;;;;21.60;13.13;;;13.60;99.90;;;;;;6253988;22;20045;-84
2023/07/14 04:11:36;;;;;;;19.23;13.50;;;13.50;99.90;;;;;;6151367;22;20028;-84
2023/07/14 04:14:03;;;;;;;20.40;13.30;;;13.50;99.90;;;;;;6254673;22;20092;-84
2023/07/14 04:16:30;;;;;;;21.88;13.27;;;13.50;99.90;;;;;;6150068;23;20014;-85
2023/07/14 04:19:08;;;;;;;25.33;14.77;;;13.50;99.90;;;;;;6151488;23;20021;-84
2023/07/14 04:21:34;;;;;;;20.63;12.88;;;13.40;99.90;;;;;;6151246;23;20020;-83
2023/07/14 04:24:00;;;;;;;22.23;14.63;;;13.40;99.90;;;;;;6253111;22;20071;-84
2023/07/14 04:29:17;;;;;;;22.65;15.18;;;13.50;99.90;;;;;;6254376;22;20096;-83
2023/07/14 04:31:51;;;;;;;22.13;14.30;;;13.50;99.90;;;;;;6149405;23;20089;-84
2023/07/14 04:34:17;;;;;;;23.77;15.07;;;13.50;99.90;;;;;;6254056;22;20017;-83
2023/07/14 04:36:44;;;;;;;24.88;15.95;;;13.50;99.90;;;;;;6253486;22;20457;-84
2023/07/14 04:39:13;;;;;;;23.25;15.18;;;13.50;99.90;;;;;;6252900;22;20025;-84
2023/07/14 04:41:57;;;;;;;25.10;16.15;;;13.60;99.90;;;;;;6253917;22;20375;-84
2023/07/14 04:44:23;;;;;;;23.90;15.70;;;13.70;99.90;;;;;;6252940;22;20067;-84
2023/07/14 04:47:05;;;;;;;27.33;17.20;;;13.70;99.90;;;;;;6252454;22;20100;-84
2023/07/14 04:49:31;;;;;;;26.70;17.27;;;13.80;99.90;;;;;;6260301;22;20104;-84
2023/07/14 04:51:56;;;;;;;27.10;16.60;;;13.80;99.90;;;;;;6150827;22;20049;-84
2023/07/14 04:54:24;;;;;;;28.48;17.05;;;13.90;99.90;;;;;;6254114;22;20485;-84
2023/07/14 04:56:59;;;;;;;27.48;16.83;;;14.00;99.90;;;;;;6150472;23;20453;-84
2023/07/14 04:59:25;;;;;;;27.75;17.00;;;14.00;99.90;;;;;;6150014;22;20028;-84
2023/07/14 05:01:51;;;;;;;24.95;16.58;;;14.20;99.90;;;;;;6253361;22;20100;-84
2023/07/14 05:04:17;;;;;;;26.10;16.75;;;14.40;99.90;;;;;;6253565;22;20022;-84
2023/07/14 05:06:49;;;;;;;25.08;16.98;;;14.50;99.90;;;;;;6252634;22;20408;-84
2023/07/14 05:09:14;;;;;;;24.75;16.10;;;14.60;99.90;;;;;;6151415;23;20020;-84
2023/07/14 05:11:40;;;;;;;25.27;16.38;;;14.70;99.90;;;;;;6252634;22;20063;-84
2023/07/14 05:14:34;;;;;;;28.08;16.52;;;14.90;99.90;;;;;;6254526;22;20049;-84
2023/07/14 05:16:59;;;;;;;26.27;16.17;;;15.00;99.90;;;;;;6253366;22;20017;-84
2023/07/14 05:19:37;;;;;;;23.63;15.48;;;15.20;99.90;;;;;;6252027;22;20031;-83
2023/07/14 05:22:03;;;;;;;23.05;15.57;;;15.30;99.90;;;;;;6254015;22;20010;-83
2023/07/14 05:24:29;;;;;;;23.20;15.23;;;15.40;99.90;;;;;;6253084;22;20295;-84
2023/07/14 05:26:56;;;;;;;24.23;15.02;;;15.40;99.90;;;;;;6252992;22;20029;-83
2023/07/14 05:29:39;;;;;;;23.45;15.35;;;15.40;99.90;;;;;;6151240;23;20006;-82
2023/07/14 05:32:39;;;;;;;21.83;15.25;;;15.40;99.90;;;;;;6253854;22;20387;-84
2023/07/14 05:35:06;;;;;;;21.83;15.43;;;15.40;99.90;;;;;;6252960;22;20028;-83
2023/07/14 05:38:05;;;;;;;24.20;15.38;;;15.30;99.90;;;;;;6253507;22;20067;-84
2023/07/14 05:40:52;;;;;;;25.90;15.75;;;15.40;99.90;;;;;;6180057;23;20021;-84
2023/07/14 05:43:18;;;;;;;48.53;18.50;;;15.30;99.90;;;;;;6166418;22;20018;-83
2023/07/14 05:46:03;;;;;;;56.35;21.25;;;15.40;99.90;;;;;;6253695;22;20020;-84
2023/07/14 05:48:30;;;;;;;35.90;16.73;;;15.40;99.90;;;;;;6252477;22;20013;-85
2023/07/14 05:50:55;;;;;;;26.27;15.43;;;15.40;99.90;;;;;;6201862;22;20019;-83
2023/07/14 05:53:42;;;;;;;23.20;15.50;;;15.40;99.90;;;;;;6275172;22;20099;-84
2023/07/14 05:56:08;;;;;;;22.67;14.25;;;15.40;99.90;;;;;;6150280;22;20056;-82
2023/07/14 05:58:36;;;;;;;21.48;14.60;;;15.50;99.90;;;;;;6122722;23;20018;-82
2023/07/14 06:01:02;;;;;;;22.48;13.80;;;15.50;99.90;;;;;;6121606;23;20032;-83
2023/07/14 06:03:41;;;;;;;22.92;14.45;;;15.60;99.90;;;;;;6148772;23;20457;-83
2023/07/14 06:06:16;;;;;;;20.58;13.50;;;15.70;99.90;;;;;;6123085;23;20017;-82
2023/07/14 06:08:55;;;;;;;21.55;14.73;;;15.80;99.90;;;;;;6121938;23;20021;-81
2023/07/14 06:11:36;;;;;;;22.15;14.00;;;16.00;99.90;;;;;;6121860;23;20451;-82
2023/07/14 06:14:17;;;;;;;21.70;13.48;;;16.10;99.90;;;;;;6123963;23;20318;-83
2023/07/14 06:16:43;;;;;;;19.55;12.57;;;16.30;99.90;;;;;;6122887;23;20044;-81
2023/07/14 06:19:36;;;;;;;21.83;12.93;;;16.50;99.90;;;;;;6124805;23;20013;-80
2023/07/14 06:22:02;;;;;;;20.13;12.57;;;16.70;99.90;;;;;;6151163;23;20014;-83
2023/07/14 06:24:57;;;;;;;19.45;12.13;;;16.70;99.90;;;;;;6150492;23;20430;-82
2023/07/14 06:27:24;;;;;;;16.60;10.57;;;16.80;99.90;;;;;;6151409;23;20092;-82
2023/07/14 06:30:15;;;;;;;18.17;11.48;;;16.80;99.90;;;;;;6123370;23;20078;-82
2023/07/14 06:33:24;;;;;;;18.65;10.43;;;16.70;99.90;;;;;;6211660;23;20471;-82
2023/07/14 06:35:55;;;;;;;24.40;11.07;;;16.70;99.90;;;;;;6123274;23;20017;-83
2023/07/14 06:38:34;;;;;;;22.83;11.48;;;16.90;99.90;;;;;;6121253;23;20096;-82
2023/07/14 06:41:16;;;;;;;55.72;14.90;;;16.90;99.90;;;;;;6123888;23;20357;-81
2023/07/14 06:43:52;;;;;;;24.92;11.63;;;17.00;99.90;;;;;;6123738;23;20314;-82
2023/07/14 06:46:18;;;;;;;23.45;11.27;;;17.10;99.90;;;;;;6151329;23;20013;-82
2023/07/14 06:48:53;;;;;;;24.23;10.82;;;17.20;99.90;;;;;;6150562;23;20329;-82
2023/07/14 06:51:19;;;;;;;21.15;10.30;;;16.90;99.90;;;;;;6233573;22;20384;-81
2023/07/14 06:53:45;;;;;;;35.55;11.40;;;17.40;99.90;;;;;;6275356;22;20081;-80
2023/07/14 06:56:26;;;;;;;24.52;11.07;;;17.40;99.90;;;;;;6273823;22;20011;-81
2023/07/14 06:58:53;;;;;;;26.75;11.20;;;17.40;99.90;;;;;;6274578;22;20022;-81
2023/07/14 07:01:39;;;;;;;23.08;10.13;;;17.40;99.90;;;;;;6273901;22;20099;-80
2023/07/14 07:04:05;;;;;;;17.33;9.07;;;17.40;99.90;;;;;;6274175;22;20343;-84
2023/07/14 07:06:33;;;;;;;16.30;8.85;;;17.50;99.90;;;;;;6273101;22;20340;-82
2023/07/14 07:09:02;;;;;;;15.57;8.52;;;17.60;99.90;;;;;;6273833;22;20034;-82
2023/07/14 07:11:35;;;;;;;14.25;8.30;;;17.80;99.90;;;;;;6276717;22;20020;-85
2023/07/14 07:14:56;;;;;;;19.90;9.43;;;17.90;99.90;;;;;;6273402;22;20081;-82
2023/07/14 07:17:22;;;;;;;16.63;8.88;;;18.10;99.90;;;;;;6275564;22;20012;-82
2023/07/14 07:19:50;;;;;;;13.82;8.18;;;18.20;99.90;;;;;;6272997;22;20321;-82
2023/07/14 07:25:20;;;;;;;;;;;18.50;99.90;;;;;;6275202;22;20020;-82
2023/07/14 07:27:45;;;;;;;15.45;8.82;;;18.60;99.90;;;;;;6273888;22;20242;-81
2023/07/14 07:30:14;;;;;;;14.43;8.20;;;18.70;99.90;;;;;;6278076;22;20011;-82
2023/07/14 07:32:41;;;;;;;15.05;8.80;;;18.80;99.90;;;;;;6275872;22;20016;-81
2023/07/14 07:35:12;;;;;;;14.35;8.32;;;19.00;99.90;;;;;;6275427;22;20008;-82
2023/07/14 07:38:32;;;;;;;16.23;8.70;;;19.00;99.90;;;;;;6275371;22;20056;-82
2023/07/14 07:40:59;;;;;;;16.65;9.00;;;19.10;99.90;;;;;;6212302;23;20021;-82
2023/07/14 07:43:27;;;;;;;13.13;8.40;;;19.20;99.90;;;;;;6263648;22;20464;-81
2023/07/14 07:45:53;;;;;;;13.63;7.93;;;19.30;99.90;;;;;;6275451;22;20016;-82
2023/07/14 07:48:21;;;;;;;14.68;8.73;;;19.40;99.90;;;;;;6274809;22;20011;-81
2023/07/14 07:51:16;;;;;;;12.85;8.30;;;19.50;99.90;;;;;;6273533;22;20019;-82
2023/07/14 07:53:42;;;;;;;14.65;8.23;;;19.50;99.90;;;;;;6268322;22;20438;-82
2023/07/14 07:56:34;;;;;;;15.00;8.75;;;19.60;99.90;;;;;;6274029;22;20054;-82
2023/07/14 07:59:18;;;;;;;13.30;7.75;;;19.70;99.90;;;;;;6275774;22;20020;-82
2023/07/14 08:01:45;;;;;;;12.90;7.85;;;19.80;99.90;;;;;;6274625;22;20099;-83
2023/07/14 08:04:12;;;;;;;12.23;7.30;;;19.90;99.90;;;;;;6277701;22;20022;-82
2023/07/14 08:06:41;;;;;;;11.88;5.80;;;20.10;99.90;;;;;;6275585;22;20091;-82
2023/07/14 08:09:07;;;;;;;12.30;6.32;;;20.30;99.90;;;;;;6274772;22;20019;-83
2023/07/14 08:11:33;;;;;;;12.43;6.30;;;20.30;99.90;;;;;;6275345;22;20344;-83
2023/07/14 08:14:17;;;;;;;11.82;5.63;;;20.40;99.90;;;;;;6276044;22;20090;-85
2023/07/14 08:16:43;;;;;;;11.80;5.60;;;20.60;99.90;;;;;;6274543;22;20016;-85
2023/07/14 08:19:15;;;;;;;13.45;6.68;;;20.60;99.90;;;;;;6275548;22;20016;-84
2023/07/14 08:21:41;;;;;;;13.75;6.20;;;20.60;99.90;;;;;;6275254;22;20052;-85
2023/07/14 08:24:19;;;;;;;12.55;5.65;;;20.70;99.90;;;;;;6274532;22;20039;-84
2023/07/14 08:26:44;;;;;;;11.60;5.10;;;20.90;99.90;;;;;;6275302;22;20069;-86
2023/07/14 08:29:13;;;;;;;12.65;4.78;;;20.80;99.90;;;;;;6275511;22;20015;-85
2023/07/14 08:31:38;;;;;;;11.48;4.13;;;20.90;99.90;;;;;;6276884;22;20121;-86
2023/07/14 08:34:14;;;;;;;12.73;4.15;;;21.00;99.90;;;;;;6277383;22;20428;-85
2023/07/14 08:36:40;;;;;;;10.63;3.85;;;20.90;99.90;;;;;;6274735;22;20444;-86
2023/07/14 08:39:13;;;;;;;9.98;4.00;;;20.80;99.90;;;;;;6275578;22;20023;-85
2023/07/14 08:41:46;;;;;;;;;;;20.80;99.90;;;;;;6277047;22;20014;-86
2023/07/14 08:44:31;;;;;;;9.10;3.83;;;20.80;99.90;;;;;;6276611;22;20012;-85
2023/07/14 08:47:37;;;;;;;10.05;4.28;;;21.10;99.90;;;;;;6277545;22;20024;-86
2023/07/14 08:50:35;;;;;;;10.02;4.25;;;21.30;99.90;;;;;;6249004;22;20033;-86
2023/07/14 08:53:32;;;;;;;13.15;4.22;;;21.30;99.90;;;;;;6248649;22;20029;-85
2023/07/14 08:56:03;;;;;;;12.90;4.22;;;21.50;99.90;;;;;;6251838;22;20457;-85
2023/07/14 08:58:52;;;;;;;10.07;3.88;;;21.60;99.90;;;;;;6150472;22;20344;-85
2023/07/14 09:01:46;;;;;;;9.60;3.88;;;21.80;99.90;;;;;;6151638;22;20053;-86
2023/07/14 09:04:40;;;;;;;11.05;3.90;;;22.00;99.90;;;;;;6255077;22;20441;-86
2023/07/14 09:07:12;;;;;;;9.48;3.97;;;22.20;99.90;;;;;;6152074;23;20053;-86
2023/07/14 09:09:39;;;;;;;13.70;4.05;;;22.30;99.90;;;;;;6254208;22;20013;-85
2023/07/14 09:12:16;;;;;;;10.77;4.53;;;22.30;99.90;;;;;;6253546;22;20070;-85
2023/07/14 09:15:06;;;;;;;12.18;4.28;;;22.30;99.90;;;;;;6151616;23;20429;-86
2023/07/14 09:17:54;;;;;;;9.40;3.58;;;22.50;99.90;;;;;;6151364;23;20021;-86
2023/07/14 09:20:38;;;;;;;25.17;5.68;;;22.10;99.90;;;;;;6150751;23;20102;-86
2023/07/14 09:23:38;;;;;;;11.82;4.18;;;22.20;99.90;;;;;;6153804;22;20318;-89
2023/07/14 09:26:34;;;;;;;20.27;5.20;;;22.20;99.90;;;;;;6150911;23;20014;-90
2023/07/14 09:29:16;;;;;;;9.02;3.50;;;22.70;99.90;;;;;;6151655;22;20341;-87
2023/07/14 09:32:03;;;;;;;14.95;3.70;;;22.70;99.90;;;;;;6253468;22;20036;-84
2023/07/14 09:34:51;;;;;;;10.63;3.60;;;22.40;99.90;;;;;;6150220;23;20021;-85
2023/07/14 09:37:41;;;;;;;9.70;3.53;;;22.20;99.90;;;;;;6151634;23;20025;-88
2023/07/14 09:40:33;;;;;;;13.90;3.65;;;22.40;99.90;;;;;;6151032;23;20105;-88
2023/07/14 09:43:02;;;;;;;10.40;3.40;;;22.00;99.90;;;;;;6151214;22;20014;-87
2023/07/14 09:45:35;;;;;;;8.75;3.45;;;22.10;99.90;;;;;;6151658;23;20059;-87
2023/07/14 09:48:44;;;;;;;10.30;3.60;;;22.30;99.90;;;;;;6252754;22;20017;-87
2023/07/14 09:54:54;;;;;;;9.32;3.00;;;22.10;99.90;;;;;;6253670;22;20021;-87
2023/07/14 09:57:55;;;;;;;9.05;3.60;;;21.60;99.90;;;;;;6254232;22;20053;-87
2023/07/14 10:03:18;;;;;;;8.40;3.25;;;21.30;99.90;;;;;;6186058;23;20056;-87
2023/07/14 10:06:03;;;;;;;10.52;3.22;;;21.20;99.90;;;;;;6161290;23;20393;-88
2023/07/14 10:08:44;;;;;;;9.73;3.55;;;21.20;99.90;;;;;;6162696;22;20357;-86
2023/07/14 10:11:36;;;;;;;11.38;3.38;;;21.60;99.90;;;;;;6254406;22;20040;-87
2023/07/14 10:14:25;;;;;;;8.85;3.28;;;21.90;99.90;;;;;;6151524;23;20093;-87
2023/07/14 10:17:00;;;;;;;10.82;3.40;;;21.90;99.90;;;;;;6150228;23;20039;-86
2023/07/14 10:19:56;;;;;;;10.35;3.33;;;21.80;99.90;;;;;;6151240;23;20044;-86
2023/07/14 10:22:40;;;;;;;7.93;3.10;;;21.80;99.90;;;;;;6150752;22;20021;-86
2023/07/14 10:25:25;;;;;;;10.60;3.33;;;21.90;99.90;;;;;;6253608;22;20017;-86
2023/07/14 10:28:10;;;;;;;11.50;3.50;;;22.30;99.90;;;;;;6253744;22;20022;-87
2023/07/14 10:30:58;;;;;;;9.60;3.25;;;22.50;99.90;;;;;;6150008;23;20022;-87
2023/07/14 10:34:17;;;;;;;;;;;;;;;;;;;;;
2023/07/14 10:36:56;;;;;;;8.23;3.08;;;23.20;99.90;;;;;;6155451;22;20021;-87
2023/07/14 10:39:36;;;;;;;9.73;3.00;;;23.20;99.90;;;;;;6253674;22;20453;-87
2023/07/14 10:42:05;;;;;;;10.68;3.00;;;22.90;99.90;;;;;;6150712;23;20052;-86
2023/07/14 10:44:37;;;;;;;11.25;3.20;;;22.70;99.90;;;;;;6149731;23;20453;-87
2023/07/14 10:47:21;;;;;;;8.23;2.75;;;22.40;99.90;;;;;;6252918;22;20048;-87
2023/07/14 10:54:11;;;;;;;9.65;3.30;;;22.50;99.90;;;;;;6206308;22;20022;-87
2023/07/14 10:56:55;;;;;;;10.02;3.00;;;22.60;99.90;;;;;;6252966;22;20173;-87
2023/07/14 10:59:39;;;;;;;;;;;22.70;99.50;;;;;;6254153;22;20017;-86
2023/07/14 11:02:29;;;;;;;8.98;3.30;;;23.10;99.90;;;;;;6254029;22;19954;-86
2023/07/14 11:05:53;;;;;;;9.10;3.30;;;23.10;99.50;;;;;;6254649;22;20062;-86
2023/07/14 11:08:19;;;;;;;8.10;3.03;;;22.90;99.90;;;;;;6182496;23;20021;-86
2023/07/14 11:11:11;;;;;;;10.63;3.30;;;22.60;99.90;;;;;;6248438;22;20021;-86
2023/07/14 11:13:59;;;;;;;8.35;3.28;;;22.60;99.90;;;;;;6150514;23;20480;-86
2023/07/14 11:16:55;;;;;;;9.63;3.35;;;22.90;99.90;;;;;;6151325;22;20449;-87
2023/07/14 11:20:23;;;;;;;11.05;3.53;;;23.30;99.90;;;;;;6252998;22;20021;-88
2023/07/14 11:23:37;;;;;;;8.48;3.22;;;23.30;98.50;;;;;;6154063;22;20029;-89
2023/07/14 11:26:56;;;;;;;10.35;3.10;;;23.30;97.80;;;;;;6252549;22;20017;-87
2023/07/14 11:29:22;;;;;;;10.50;3.70;;;22.70;97.80;;;;;;6155016;22;20013;-80
2023/07/14 11:32:00;;;;;;;11.05;3.20;;;22.80;99.80;;;;;;6253217;22;20100;-87
2023/07/14 11:38:17;;;;;;;10.63;3.50;;;22.60;99.90;;;;;;6150166;22;20433;-89
2023/07/14 11:40:53;;;;;;;9.02;3.30;;;22.70;99.90;;;;;;6251957;22;20013;-84
2023/07/14 11:43:25;;;;;;;10.00;3.60;;;22.80;99.30;;;;;;6150736;23;20022;-83
2023/07/14 11:46:09;;;;;;;8.63;3.40;;;23.10;99.70;;;;;;6252003;22;20135;-84
2023/07/14 11:49:17;;;;;;;9.93;3.60;;;23.10;99.90;;;;;;6252766;22;20022;-83
2023/07/14 11:52:19;;;;;;;9.73;3.25;;;23.10;99.30;;;;;;6150137;23;20049;-86
2023/07/14 11:55:23;;;;;;;8.93;3.53;;;23.30;99.80;;;;;;6148739;22;20345;-84
2023/07/14 11:58:23;;;;;;;13.45;3.90;;;23.50;99.90;;;;;;6152800;23;20082;-85
2023/07/14 12:01:03;;;;;;;11.65;3.33;;;24.00;98.30;;;;;;6150593;23;20392;-83
2023/07/14 12:04:13;;;;;;;9.00;3.10;;;24.30;97.30;;;;;;6254513;22;20075;-84
2023/07/14 12:07:01;;;;;;;10.25;3.10;;;24.30;96.60;;;;;;6253679;22;20097;-85
2023/07/14 12:09:27;;;;;;;9.25;3.08;;;24.60;96.30;;;;;;6150497;23;20048;-85
2023/07/14 12:11:59;;;;;;;9.80;3.53;;;24.60;97.80;;;;;;6254056;22;20342;-88
2023/07/14 12:14:46;;;;;;;8.65;3.30;;;24.50;97.30;;;;;;6251835;22;20056;-85
2023/07/14 12:20:47;;;;;;;10.30;3.30;;;24.70;96.70;;;;;;6150600;23;20017;-86
2023/07/14 12:23:24;;;;;;;10.07;3.55;;;25.00;96.40;;;;;;6148938;23;20025;-85
2023/07/14 12:26:34;;;;;;;8.07;3.22;;;24.50;94.50;;;;;;6149903;23;20024;-86
2023/07/14 12:29:21;;;;;;;8.27;3.10;;;24.60;94.80;;;;;;6251693;22;20021;-88
2023/07/14 12:31:59;;;;;;;12.88;3.60;;;24.70;94.70;;;;;;6148143;23;20018;-85
2023/07/14 12:34:31;;;;;;;9.05;3.20;;;24.70;95.00;;;;;;6253116;22;20029;-85
2023/07/14 12:37:00;;;;;;;9.25;3.03;;;24.90;96.10;;;;;;6272399;22;20020;-86
2023/07/14 12:39:28;;;;;;;9.45;3.40;;;24.60;95.90;;;;;;6276099;22;20099;-86
2023/07/14 12:41:54;;;;;;;8.73;3.30;;;24.70;95.90;;;;;;6275729;22;20458;-86
2023/07/14 12:44:46;;;;;;;7.78;3.03;;;24.30;95.00;;;;;;6272294;22;20024;-85
2023/07/14 12:47:18;;;;;;;8.50;3.10;;;24.00;95.20;;;;;;6273817;22;20012;-86
2023/07/14 12:49:49;;;;;;;8.50;3.22;;;23.60;96.40;;;;;;6273025;22;20046;-86
2023/07/14 12:52:50;;;;;;;9.23;3.38;;;23.50;95.80;;;;;;6272972;22;20016;-86
2023/07/14 12:55:43;;;;;;;12.07;3.38;;;23.50;96.40;;;;;;6273934;22;20052;-85
2023/07/14 12:58:17;;;;;;;9.60;3.20;;;23.60;96.70;;;;;;6273055;22;20446;-86
2023/07/14 13:01:08;;;;;;;9.13;3.35;;;23.70;97.20;;;;;;6273881;22;20454;-86
2023/07/14 13:03:48;;;;;;;10.27;3.30;;;23.80;96.70;;;;;;6274232;22;20019;-86
2023/07/14 13:06:19;;;;;;;9.05;3.47;;;23.70;96.30;;;;;;6281389;22;20046;-85
2023/07/14 13:09:05;;;;;;;9.15;3.60;;;23.80;97.00;;;;;;6301987;22;20006;-86
2023/07/14 13:11:55;;;;;;;7.85;3.25;;;23.60;96.00;;;;;;6282267;22;20027;-86
2023/07/14 13:14:26;;;;;;;8.70;3.30;;;23.60;96.10;;;;;;6276431;22;20050;-86
2023/07/14 13:16:53;;;;;;;10.48;3.35;;;23.90;97.50;;;;;;6274097;22;20054;-86
2023/07/14 13:19:41;;;;;;;10.02;3.47;;;24.10;97.30;;;;;;6274025;22;20020;-85
2023/07/14 13:22:59;;;;;;;9.27;3.20;;;24.00;96.30;;;;;;6275301;22;20008;-84
2023/07/14 13:25:51;;;;;;;10.13;3.42;;;24.00;96.90;;;;;;6273052;22;20440;-81
2023/07/14 13:28:56;;;;;;;9.60;3.40;;;23.70;96.40;;;;;;6273765;22;20350;-84
2023/07/14 13:31:56;;;;;;;10.02;3.60;;;23.50;97.00;;;;;;6271602;22;20386;-87
2023/07/14 13:34:31;;;;;;;9.85;3.35;;;23.20;97.50;;;;;;6273972;22;20019;-85
2023/07/14 13:37:11;;;;;;;9.45;3.55;;;22.90;98.00;;;;;;6272826;22;20060;-84
2023/07/14 13:39:40;;;;;;;7.90;3.20;;;22.80;98.20;;;;;;6272573;22;20015;-84
2023/07/14 13:42:26;;;;;;;9.35;3.38;;;22.80;98.70;;;;;;6274482;22;20008;-84
2023/07/14 13:45:11;;;;;;;10.18;3.28;;;22.60;98.70;;;;;;6272935;22;20069;-84
2023/07/14 13:47:52;;;;;;;7.50;3.00;;;22.70;98.80;;;;;;6271949;22;20016;-84
2023/07/14 13:50:18;;;;;;;8.48;3.10;;;22.80;97.60;;;;;;6275981;22;20019;-83
2023/07/14 13:52:52;;;;;;;9.45;3.65;;;22.70;98.90;;;;;;6205433;22;20096;-84